Temp: 14.8°C   Hum: 79%
  Wind: 6.9mph   Dir: SW (214°)
  Rain: 0.6mm Rate: 0.0mm/hr
  Pressure: 1017.7mb

Historic data

Bath Spa Weather Station Historical Data
Daily Summary for January 22, 2022 Units:  English    Metric   Both
Daily Weekly Monthly Yearly Custom
  High: Low: Average:
Temperature: 42.1 °F 30.4 °F 38.2 °F
Dew Point: 37.3 °F 28.6 °F 34.9 °F
Humidity: 94% 82% 88%
Wind Speed: 4.9mph 0mph 0.7mph
Wind Gust: 9mph - -
Wind- - NW
Pressure: 30.71 in 30.66 in -
Precipitation: 0.00 in    
Historical Graphs
 
 
Tabular Data for January 22, 2022
Time Temperature Dew Point Pressure Wind Wind Speed Wind Gust Humidity Rainfall Rate (Hourly) solar
00:09 38.3 °F 35.6 °F 30.71 in Calm     90% 0.00 in 0 W/m2
00:14 38.3 °F 35.7 °F 30.71 in Calm     90% 0.00 in 0 W/m2
00:19 38.3 °F 35.6 °F 30.71 in Calm     90% 0.00 in 0 W/m2
00:24 38.1 °F 35.4 °F 30.71 in Calm     90% 0.00 in 0 W/m2
00:29 38.3 °F 35.6 °F 30.71 in Calm     90% 0.00 in 0 W/m2
00:34 38.3 °F 35.6 °F 30.70 in Calm     90% 0.00 in 0 W/m2
00:39 38.3 °F 35.6 °F 30.70 in Calm     90% 0.00 in 0 W/m2
00:44 38.2 °F 35.5 °F 30.70 in Calm     90% 0.00 in 0 W/m2
00:49 38.3 °F 35.6 °F 30.70 in Calm     90% 0.00 in 0 W/m2
00:54 38.3 °F 35.6 °F 30.70 in Calm     90% 0.00 in 0 W/m2
00:59 38.3 °F 35.6 °F 30.70 in Calm     90% 0.00 in 0 W/m2
01:04 38.3 °F 35.6 °F 30.70 in Calm     90% 0.00 in 0 W/m2
01:09 38.2 °F 35.5 °F 30.70 in Calm   1 mph 90% 0.00 in 0 W/m2
01:14 38.1 °F 35.4 °F 30.70 in Calm   1 mph 90% 0.00 in 0 W/m2
01:19 38.1 °F 35.4 °F 30.70 in Calm     90% 0.00 in 0 W/m2
01:24 38.1 °F 35.4 °F 30.70 in Calm     90% 0.00 in 0 W/m2
01:29 38.1 °F 35.4 °F 30.70 in Calm     90% 0.00 in 0 W/m2
01:34 38.1 °F 35.4 °F 30.69 in Calm     90% 0.00 in 0 W/m2
01:39 37.9 °F 35.2 °F 30.69 in Calm     90% 0.00 in 0 W/m2
01:44 37.9 °F 35.5 °F 30.69 in Calm     90.8% 0.00 in 0 W/m2
01:49 37.9 °F 35.5 °F 30.69 in Calm     90.8% 0.00 in 0 W/m2
01:54 37.9 °F 35.6 °F 30.69 in Calm     91% 0.00 in 0 W/m2
01:59 37.9 °F 35.6 °F 30.69 in Calm     91% 0.00 in 0 W/m2
02:04 37.9 °F 35.6 °F 30.69 in Calm     90.8% 0.00 in 0 W/m2
02:09 37.9 °F 35.6 °F 30.69 in Calm     91% 0.00 in 0 W/m2
02:14 37.9 °F 35.5 °F 30.69 in Calm     90.8% 0.00 in 0 W/m2
02:19 37.9 °F 35.3 °F 30.69 in Calm     90.2% 0.00 in 0 W/m2
02:24 37.9 °F 35.5 °F 30.69 in Calm   1 mph 90.8% 0.00 in 0 W/m2
02:29 37.9 °F 35.5 °F 30.69 in Calm     91% 0.00 in 0 W/m2
02:34 37.9 °F 35.6 °F 30.70 in Calm   1 mph 91% 0.00 in 0 W/m2
02:39 37.9 °F 35.6 °F 30.69 in Calm     91% 0.00 in 0 W/m2
02:44 37.9 °F 35.6 °F 30.69 in Calm     91% 0.00 in 0 W/m2
02:49 37.9 °F 35.6 °F 30.69 in Calm     91% 0.00 in 0 W/m2
02:54 37.9 °F 35.6 °F 30.69 in Calm     91% 0.00 in 0 W/m2
02:59 37.9 °F 35.6 °F 30.69 in Calm     91% 0.00 in 0 W/m2
03:04 37.9 °F 35.6 °F 30.68 in NNW 1 mph 3 mph 91% 0.00 in 0 W/m2
03:09 37.8 °F 35.4 °F 30.68 in NNW 0.2 mph 2 mph 91% 0.00 in 0 W/m2
03:14 37.8 °F 35.4 °F 30.68 in NNW 1.1 mph 3 mph 91% 0.00 in 0 W/m2
03:19 37.8 °F 35.4 °F 30.68 in NNW 0.2 mph 3 mph 91% 0.00 in 0 W/m2
03:24 37.8 °F 35.4 °F 30.68 in Calm     91% 0.00 in 0 W/m2
03:29 37.8 °F 35.4 °F 30.68 in Calm     91% 0.00 in 0 W/m2
03:34 37.6 °F 35.2 °F 30.68 in Calm     91% 0.00 in 0 W/m2
03:39 37.6 °F 35.2 °F 30.68 in Calm     91% 0.00 in 0 W/m2
03:44 37.6 °F 35.2 °F 30.68 in Calm     91% 0.00 in 0 W/m2
03:49 37.6 °F 35.2 °F 30.68 in Calm     91% 0.00 in 0 W/m2
03:54 37.6 °F 35.2 °F 30.68 in Calm     91% 0.00 in 0 W/m2
03:59 37.5 °F 35.1 °F 30.68 in Calm     91% 0.00 in 0 W/m2
04:04 37.4 °F 35.1 °F 30.68 in Calm     91% 0.00 in 0 W/m2
04:09 37.4 °F 35.1 °F 30.68 in Calm     91% 0.00 in 0 W/m2
04:14 37.4 °F 35.1 °F 30.68 in Calm     91% 0.00 in 0 W/m2
04:19 37.4 °F 35.1 °F 30.68 in Calm     91% 0.00 in 0 W/m2
04:24 37.2 °F 34.9 °F 30.68 in Calm     91% 0.00 in 0 W/m2
04:29 37.2 °F 34.9 °F 30.68 in Calm     91% 0.00 in 0 W/m2
04:34 37.2 °F 34.9 °F 30.68 in NNW 0.2 mph 2 mph 91% 0.00 in 0 W/m2
04:39 37 °F 34.7 °F 30.68 in Calm   2 mph 91% 0.00 in 0 W/m2
04:44 36.7 °F 34.3 °F 30.68 in Calm     91% 0.00 in 0 W/m2
04:49 36.2 °F 33.9 °F 30.68 in NNW 0.7 mph 2 mph 91% 0.00 in 0 W/m2
04:54 35.9 °F 33.6 °F 30.68 in NNW 1.1 mph 2 mph 91% 0.00 in 0 W/m2
04:59 35.6 °F 33.3 °F 30.68 in NNW 0.9 mph 2 mph 91% 0.00 in 0 W/m2
05:04 35.2 °F 32.9 °F 30.67 in NNW 0.7 mph 2 mph 91% 0.00 in 0 W/m2
05:09 35.1 °F 32.7 °F 30.67 in NNW 0.9 mph 2 mph 91% 0.00 in 0 W/m2
05:14 34.7 °F 32.4 °F 30.67 in NNW 0.8 mph 2 mph 91% 0.00 in 0 W/m2
05:19 34.3 °F 31.9 °F 30.67 in Calm   1 mph 91% 0.00 in 0 W/m2
05:24 34 °F 31.6 °F 30.67 in NNW 0.9 mph 2 mph 91% 0.00 in 0 W/m2
05:29 34 °F 31.6 °F 30.67 in NNW 0.2 mph 2 mph 91% 0.00 in 0 W/m2
05:34 33.7 °F 31.4 °F 30.67 in Calm   1 mph 91% 0.00 in 0 W/m2
05:39 33.4 °F 31.1 °F 30.67 in Calm     91% 0.00 in 0 W/m2
05:44 33.3 °F 31 °F 30.68 in Calm   1 mph 91% 0.00 in 0 W/m2
05:49 33.3 °F 31 °F 30.68 in NNW 1.5 mph 3 mph 91.5% 0.00 in 0 W/m2
05:54 33.3 °F 31.1 °F 30.68 in NNW 1.2 mph 3 mph 92% 0.00 in 0 W/m2
05:59 33.2 °F 31.1 °F 30.68 in Calm   1 mph 92% 0.00 in 0 W/m2
06:04 33.1 °F 31.1 °F 30.68 in Calm   1 mph 92% 0.00 in 0 W/m2
06:09 32.8 °F 30.8 °F 30.68 in Calm     92% 0.00 in 0 W/m2
06:14 32.7 °F 30.7 °F 30.68 in Calm     92% 0.00 in 0 W/m2
06:19 32.6 °F 30.6 °F 30.68 in Calm     92% 0.00 in 0 W/m2
06:24 32.5 °F 30.6 °F 30.69 in Calm     92% 0.00 in 0 W/m2
06:29 32.4 °F 30.4 °F 30.69 in Calm   1 mph 92% 0.00 in 0 W/m2
06:34 32.3 °F 30.3 °F 30.69 in Calm   1 mph 92% 0.00 in 0 W/m2
06:39 32.2 °F 30.2 °F 30.69 in Calm     92% 0.00 in 0 W/m2
06:44 32 °F 30 °F 30.69 in Calm   1 mph 92% 0.00 in 0 W/m2
06:49 31.8 °F 29.8 °F 30.69 in Calm   1 mph 92% 0.00 in 0 W/m2
06:54 31.8 °F 29.8 °F 30.69 in Calm     92% 0.00 in 0 W/m2
06:59 31.6 °F 29.7 °F 30.69 in Calm     92% 0.00 in 0 W/m2
07:04 31.6 °F 29.7 °F 30.70 in NNW 0.2 mph 2 mph 92% 0.00 in 0 W/m2
07:09 31.3 °F 29.3 °F 30.69 in NNW 0.9 mph 2 mph 92% 0.00 in 0 W/m2
07:14 31.3 °F 29.3 °F 30.70 in NNW 0.2 mph 2 mph 92% 0.00 in 0 W/m2
07:19 31 °F 29 °F 30.70 in Calm     92% 0.00 in 0 W/m2
07:24 30.9 °F 28.9 °F 30.70 in Calm     92% 0.00 in 0 W/m2
07:29 30.9 °F 28.9 °F 30.70 in Calm     92% 0.00 in 0 W/m2
07:34 30.8 °F 28.8 °F 30.70 in Calm     92% 0.00 in 0 W/m2
07:39 30.7 °F 28.8 °F 30.70 in Calm     92% 0.00 in 0 W/m2
07:44 30.6 °F 28.7 °F 30.70 in Calm     92% 0.00 in 0 W/m2
07:49 30.6 °F 28.6 °F 30.70 in Calm   1 mph 92% 0.00 in 0 W/m2
07:54 30.6 °F 28.6 °F 30.70 in NNW 0.2 mph 1 mph 92.2% 0.00 in 0 W/m2
07:59 30.5 °F 28.6 °F 30.70 in NNW 0.2 mph 1 mph 92.6% 0.00 in 0 W/m2
08:04 30.4 °F 28.6 °F 30.70 in Calm   1 mph 93% 0.00 in 5 W/m2
08:07 30.4 °F 28.6 °F 30.70 in Calm     93% 0.00 in 5 W/m2
08:14 30.4 °F 28.6 °F 30.71 in Calm     93% 0.00 in 9 W/m2
08:19 30.4 °F 28.6 °F 30.71 in Calm     93% 0.00 in 11 W/m2
08:24 30.6 °F 28.8 °F 30.70 in Calm     93% 0.00 in 12 W/m2
08:29 30.6 °F 28.8 °F 30.70 in Calm     93% 0.00 in 16 W/m2
08:34 30.6 °F 28.8 °F 30.70 in Calm     93% 0.00 in 19 W/m2
08:39 30.6 °F 28.8 °F 30.70 in Calm   1 mph 93% 0.00 in 23 W/m2
08:44 30.8 °F 29 °F 30.70 in Calm     93% 0.00 in 25 W/m2
08:49 30.8 °F 29 °F 30.71 in Calm     93% 0.00 in 28 W/m2
08:54 31.6 °F 29.8 °F 30.70 in Calm     93% 0.00 in 30 W/m2
08:59 33.4 °F 31.7 °F 30.70 in Calm     93.4% 0.00 in 33 W/m2
09:04 32.2 °F 30.4 °F 30.70 in Calm     93% 0.00 in 35 W/m2
09:09 32.1 °F 30.3 °F 30.71 in NNW 0.2 mph 1 mph 93% 0.00 in 35 W/m2
09:14 31.9 °F 30.1 °F 30.70 in Calm   1 mph 93% 0.00 in 37 W/m2
09:19 31.9 °F 30.1 °F 30.71 in Calm     93% 0.00 in 39 W/m2
09:24 32.8 °F 31 °F 30.71 in Calm     93% 0.00 in 40 W/m2
09:29 33.7 °F 32.1 °F 30.71 in Calm     94% 0.00 in 44 W/m2
09:34 33.2 °F 31.5 °F 30.71 in Calm     93.6% 0.00 in 49 W/m2
09:39 33.1 °F 31.3 °F 30.71 in Calm     93% 0.00 in 56 W/m2
09:44 33.4 °F 31.6 °F 30.71 in NNW 0.2 mph 1 mph 93% 0.00 in 63 W/m2
09:49 33.9 °F 32.1 °F 30.70 in Calm     93% 0.00 in 70 W/m2
09:54 34.2 °F 32.4 °F 30.71 in Calm     93% 0.00 in 79 W/m2
09:59 34.6 °F 32.8 °F 30.71 in Calm     93% 0.00 in 86 W/m2
10:04 35.2 °F 33.4 °F 30.71 in Calm     93% 0.00 in 95 W/m2
10:09 35.2 °F 33.4 °F 30.71 in Calm     93% 0.00 in 102 W/m2
10:14 35.7 °F 33.7 °F 30.71 in Calm     92.4% 0.00 in 111 W/m2
10:19 36.1 °F 34 °F 30.70 in Calm     92% 0.00 in 125 W/m2
10:24 36.8 °F 34.7 °F 30.70 in Calm     92% 0.00 in 135 W/m2
10:29 37.9 °F 35.6 °F 30.70 in Calm     91.6% 0.00 in 146 W/m2
10:34 38 °F 35.4 °F 30.70 in NNW 0.8 mph 3 mph 90.4% 0.00 in 153 W/m2
10:39 37.9 °F 35.2 °F 30.71 in NNW 0.4 mph 2 mph 89.6% 0.00 in 160 W/m2
10:44 38 °F 35.1 °F 30.71 in NNW 0.6 mph 3 mph 89% 0.00 in 163 W/m2
10:49 38 °F 35.1 °F 30.71 in NNW 1.3 mph 3 mph 89% 0.00 in 178 W/m2
10:54 38.3 °F 35.4 °F 30.71 in NNW 0.2 mph 2 mph 89% 0.00 in 186 W/m2
10:59 38.4 °F 35.1 °F 30.71 in NNW 1.3 mph 4 mph 88% 0.00 in 193 W/m2
11:04 38.4 °F 35.1 °F 30.71 in NNW 0.2 mph 3 mph 88% 0.00 in 221 W/m2
11:09 38.8 °F 35.6 °F 30.71 in Calm     88% 0.00 in 248 W/m2
11:14 39.6 °F 36.3 °F 30.71 in Calm   1 mph 88% 0.00 in 264 W/m2
11:19 39.9 °F 36.5 °F 30.71 in NNW 0.6 mph 3 mph 87.4% 0.00 in 292 W/m2
11:24 40.3 °F 36.7 °F 30.70 in NNW 0.5 mph 3 mph 87% 0.00 in 287 W/m2
11:29 40.4 °F 36.6 °F 30.70 in NNW 1.5 mph 4 mph 86% 0.00 in 227 W/m2
11:34 40.2 °F 36.4 °F 30.70 in NNW 2.2 mph 5 mph 86% 0.00 in 193 W/m2
11:39 40 °F 36.2 °F 30.70 in NNW 1.9 mph 4 mph 86% 0.00 in 178 W/m2
11:44 40.1 °F 36.3 °F 30.70 in NNW 3.1 mph 5 mph 86% 0.00 in 183 W/m2
11:49 40.1 °F 36.3 °F 30.70 in NNW 3.8 mph 6 mph 86% 0.00 in 213 W/m2
11:54 40.3 °F 36.5 °F 30.70 in NNW 3.4 mph 6 mph 86% 0.00 in 209 W/m2
11:59 40.5 °F 36.7 °F 30.70 in NNW 3.7 mph 7 mph 86% 0.00 in 193 W/m2
12:04 40.7 °F 36.9 °F 30.70 in NNW 2.4 mph 5 mph 86% 0.00 in 149 W/m2
12:09 40.8 °F 37 °F 30.70 in NNW 2.6 mph 6 mph 86% 0.00 in 141 W/m2
12:14 40.5 °F 36.8 °F 30.70 in NNW 4.5 mph 7 mph 86% 0.00 in 128 W/m2
12:19 40.5 °F 36.7 °F 30.70 in NNW 2.4 mph 6 mph 86% 0.00 in 130 W/m2
12:24 40.5 °F 36.7 °F 30.70 in NNW 3.1 mph 7 mph 86% 0.00 in 121 W/m2
12:29 40.5 °F 36.7 °F 30.70 in NNW 4.8 mph 7 mph 86% 0.00 in 127 W/m2
12:34 40.5 °F 36.7 °F 30.70 in NNW 3.7 mph 7 mph 86% 0.00 in 134 W/m2
12:39 40.6 °F 36.9 °F 30.69 in NNW 3.3 mph 7 mph 86% 0.00 in 137 W/m2
12:44 40.6 °F 36.9 °F 30.70 in NNW 3.5 mph 7 mph 86% 0.00 in 128 W/m2
12:49 40.8 °F 37 °F 30.70 in NNW 2.9 mph 7 mph 86% 0.00 in 116 W/m2
12:54 40.8 °F 37 °F 30.70 in NNW 1.7 mph 6 mph 86% 0.00 in 120 W/m2
12:59 41.1 °F 37.3 °F 30.69 in NNW 1.4 mph 4 mph 86% 0.00 in 118 W/m2
13:04 41.2 °F 37.2 °F 30.69 in NNW 1.7 mph 4 mph 85.6% 0.00 in 111 W/m2
13:09 41.4 °F 37.2 °F 30.70 in NNW 2.5 mph 5 mph 85% 0.00 in 98 W/m2
13:14 41.4 °F 37.2 °F 30.70 in NNW 2.8 mph 5 mph 85% 0.00 in 104 W/m2
13:19 41.4 °F 37.2 °F 30.69 in NNW 3.7 mph 8 mph 85% 0.00 in 107 W/m2
13:24 41.4 °F 37.2 °F 30.69 in NNW 3.2 mph 8 mph 85% 0.00 in 107 W/m2
13:29 41.4 °F 36.9 °F 30.69 in NNW 2.5 mph 6 mph 84% 0.00 in 95 W/m2
13:34 41.5 °F 37 °F 30.68 in NW 4.1 mph 9 mph 84% 0.00 in 95 W/m2
13:39 41.4 °F 36.8 °F 30.68 in WNW 4.9 mph 8 mph 83.8% 0.00 in 93 W/m2
13:44 41.2 °F 36.5 °F 30.68 in WNW 2.3 mph 9 mph 83% 0.00 in 84 W/m2
13:49 41.4 °F 36.5 °F 30.68 in WNW 2.4 mph 6 mph 83% 0.00 in 97 W/m2
13:54 41.5 °F 36.7 °F 30.68 in WNW 3.2 mph 5 mph 83% 0.00 in 97 W/m2
13:59 41.5 °F 36.7 °F 30.68 in WNW 2.4 mph 5 mph 83% 0.00 in 91 W/m2
14:04 41.6 °F 36.8 °F 30.68 in WNW 2.7 mph 4 mph 83% 0.00 in 88 W/m2
14:09 41.7 °F 36.7 °F 30.68 in WNW 1.2 mph 3 mph 82.2% 0.00 in 81 W/m2
14:14 41.7 °F 36.7 °F 30.68 in WNW 3.2 mph 4 mph 82% 0.00 in 88 W/m2
14:19 41.7 °F 36.7 °F 30.68 in WNW 1.8 mph 4 mph 82% 0.00 in 90 W/m2
14:24 41.8 °F 36.8 °F 30.68 in WNW 1.5 mph 5 mph 82% 0.00 in 84 W/m2
14:29 41.8 °F 36.8 °F 30.68 in WNW 3.3 mph 6 mph 82% 0.00 in 74 W/m2
14:34 41.7 °F 36.7 °F 30.68 in WNW 0.8 mph 5 mph 82% 0.00 in 70 W/m2
14:39 41.9 °F 36.9 °F 30.68 in Calm     82% 0.00 in 63 W/m2
14:44 42.1 °F 37 °F 30.68 in WNW 1 mph 3 mph 82% 0.00 in 62 W/m2
14:49 42.1 °F 37 °F 30.67 in WNW 2.3 mph 4 mph 82% 0.00 in 56 W/m2
14:54 42.1 °F 37 °F 30.67 in WNW 2.6 mph 4 mph 82% 0.00 in 56 W/m2
14:59 42.1 °F 37 °F 30.67 in WNW 2.8 mph 4 mph 82% 0.00 in 51 W/m2
15:04 42.1 °F 37 °F 30.67 in WNW 3.2 mph 5 mph 82% 0.00 in 47 W/m2
15:09 42 °F 36.9 °F 30.67 in WNW 3.7 mph 6 mph 82% 0.00 in 47 W/m2
15:14 41.9 °F 36.9 °F 30.67 in WNW 2.5 mph 4 mph 82% 0.00 in 44 W/m2
15:19 41.9 °F 36.9 °F 30.67 in WNW 0.8 mph 3 mph 82% 0.00 in 40 W/m2
15:24 42 °F 37 °F 30.67 in WNW 1.4 mph 3 mph 82% 0.00 in 39 W/m2
15:29 42.1 °F 37 °F 30.67 in WNW 1.3 mph 4 mph 82% 0.00 in 35 W/m2
15:34 42.1 °F 37 °F 30.67 in WNW 2.5 mph 5 mph 82% 0.00 in 37 W/m2
15:39 42 °F 37 °F 30.67 in WNW 2.2 mph 7 mph 82% 0.00 in 33 W/m2
15:44 41.9 °F 36.9 °F 30.67 in WNW 1.3 mph 4 mph 82% 0.00 in 30 W/m2
15:49 41.9 °F 36.9 °F 30.67 in WNW 1.3 mph 3 mph 82% 0.00 in 30 W/m2
15:53 41.8 °F 36.8 °F 30.67 in WNW 2 mph 4 mph 82% 0.00 in 26 W/m2
15:59 41.7 °F 36.7 °F 30.66 in WNW 0.8 mph 3 mph 82% 0.00 in 25 W/m2
16:04 41.8 °F 36.8 °F 30.67 in WNW 1.8 mph 3 mph 82% 0.00 in 21 W/m2
16:09 41.7 °F 36.7 °F 30.67 in WNW 1.6 mph 3 mph 82% 0.00 in 18 W/m2
16:14 41.7 °F 36.7 °F 30.67 in WNW 0.2 mph 3 mph 82% 0.00 in 16 W/m2
16:19 41.7 °F 36.7 °F 30.67 in Calm     82% 0.00 in 14 W/m2
16:24 41.7 °F 36.7 °F 30.67 in WNW 1.4 mph 3 mph 82% 0.00 in 11 W/m2
16:29 41.6 °F 36.7 °F 30.67 in WNW 0.9 mph 3 mph 82.2% 0.00 in 9 W/m2
16:34 41.5 °F 36.7 °F 30.67 in WNW 2.5 mph 4 mph 83% 0.00 in 7 W/m2
16:39 41.5 °F 36.7 °F 30.67 in WNW 1.2 mph 4 mph 83% 0.00 in 0 W/m2
16:44 41.5 °F 36.7 °F 30.67 in Calm   2 mph 83% 0.00 in 0 W/m2
16:49 41.5 °F 36.7 °F 30.67 in WNW 0.4 mph 2 mph 83% 0.00 in 0 W/m2
16:54 41.5 °F 36.7 °F 30.67 in WNW 0.2 mph 2 mph 83% 0.00 in 0 W/m2
16:59 41.5 °F 36.7 °F 30.67 in Calm   1 mph 83% 0.00 in 0 W/m2
17:04 41.5 °F 36.7 °F 30.67 in WNW 1.4 mph 4 mph 83% 0.00 in 0 W/m2
17:09 41.5 °F 36.7 °F 30.67 in WNW 2.4 mph 5 mph 83% 0.00 in 0 W/m2
17:14 41.5 °F 36.7 °F 30.67 in WNW 2.4 mph 4 mph 83% 0.00 in 0 W/m2
17:19 41.5 °F 36.7 °F 30.66 in WNW 1 mph 4 mph 83% 0.00 in 0 W/m2
17:24 41.5 °F 36.7 °F 30.66 in WNW 0.9 mph 3 mph 83% 0.00 in 0 W/m2
17:29 41.5 °F 36.7 °F 30.67 in Calm   2 mph 83% 0.00 in 0 W/m2
17:34 41.5 °F 36.7 °F 30.67 in Calm   2 mph 83% 0.00 in 0 W/m2
17:39 41.5 °F 36.7 °F 30.67 in WNW 0.8 mph 3 mph 83% 0.00 in 0 W/m2
17:44 41.5 °F 36.7 °F 30.67 in WNW 0.4 mph 3 mph 83% 0.00 in 0 W/m2
17:49 41.4 °F 36.6 °F 30.67 in Calm     83% 0.00 in 0 W/m2
17:54 41.4 °F 36.5 °F 30.67 in Calm     83% 0.00 in 0 W/m2
17:59 41.4 °F 36.5 °F 30.67 in Calm     83% 0.00 in 0 W/m2
18:04 41.4 °F 36.5 °F 30.67 in Calm     83% 0.00 in 0 W/m2
18:09 41.4 °F 36.9 °F 30.67 in Calm     84% 0.00 in 0 W/m2
18:14 41.4 °F 36.9 °F 30.67 in Calm     84% 0.00 in 0 W/m2
18:19 41.4 °F 36.9 °F 30.67 in Calm     84% 0.00 in 0 W/m2
18:24 41.2 °F 36.7 °F 30.67 in Calm     84% 0.00 in 0 W/m2
18:29 41.2 °F 36.7 °F 30.67 in Calm     84% 0.00 in 0 W/m2
18:34 41.2 °F 36.7 °F 30.67 in Calm     84% 0.00 in 0 W/m2
18:39 41.1 °F 36.6 °F 30.67 in WNW 0.2 mph 2 mph 84% 0.00 in 0 W/m2
18:44 41.1 °F 36.6 °F 30.67 in WNW 0.2 mph 1 mph 84% 0.00 in 0 W/m2
18:49 41.1 °F 36.6 °F 30.67 in Calm   1 mph 84% 0.00 in 0 W/m2
18:54 41.1 °F 36.6 °F 30.67 in WNW 0.8 mph 2 mph 84% 0.00 in 0 W/m2
18:59 41 °F 36.5 °F 30.67 in Calm   1 mph 84% 0.00 in 0 W/m2
19:04 41 °F 36.5 °F 30.67 in Calm     84% 0.00 in 0 W/m2
19:09 41 °F 36.5 °F 30.67 in Calm     84% 0.00 in 0 W/m2
19:14 40.9 °F 36.4 °F 30.67 in Calm     84% 0.00 in 0 W/m2
19:19 41 °F 36.5 °F 30.67 in Calm   1 mph 84% 0.00 in 0 W/m2
19:24 40.8 °F 36.3 °F 30.67 in Calm     84% 0.00 in 0 W/m2
19:29 40.9 °F 36.7 °F 30.67 in Calm     84.8% 0.00 in 0 W/m2
19:34 40.7 °F 36.5 °F 30.67 in Calm     84.8% 0.00 in 0 W/m2
19:39 40.6 °F 36.5 °F 30.67 in Calm     85% 0.00 in 0 W/m2
19:44 40.5 °F 36.3 °F 30.66 in WNW 0.5 mph 2 mph 85% 0.00 in 0 W/m2
19:49 40.4 °F 36.2 °F 30.66 in Calm   2 mph 85% 0.00 in 0 W/m2
19:54 40.4 °F 36.2 °F 30.66 in WNW 1.2 mph 3 mph 85% 0.00 in 0 W/m2
19:59 40.2 °F 36.1 °F 30.66 in WNW 1.1 mph 2 mph 85.2% 0.00 in 0 W/m2
20:04 40.1 °F 36.3 °F 30.66 in WNW 0.5 mph 2 mph 86% 0.00 in 0 W/m2
20:09 39.9 °F 36.1 °F 30.66 in WNW 0.4 mph 2 mph 86% 0.00 in 0 W/m2
20:14 39.9 °F 36.1 °F 30.66 in Calm     86% 0.00 in 0 W/m2
20:19 39.9 °F 36.1 °F 30.66 in WNW 0.7 mph 2 mph 86% 0.00 in 0 W/m2
20:24 39.9 °F 36.1 °F 30.66 in WNW 0.2 mph 2 mph 86% 0.00 in 0 W/m2
20:29 40.1 °F 36.3 °F 30.66 in Calm     86% 0.00 in 0 W/m2
20:34 40.1 °F 36.3 °F 30.66 in Calm   2 mph 86% 0.00 in 0 W/m2
20:39 39.9 °F 36.1 °F 30.66 in Calm     86% 0.00 in 0 W/m2
20:44 39.9 °F 36.1 °F 30.66 in Calm     86% 0.00 in 0 W/m2
20:49 39.9 °F 36.1 °F 30.66 in Calm     86% 0.00 in 0 W/m2
20:54 39.9 °F 36.1 °F 30.67 in Calm     86% 0.00 in 0 W/m2
20:59 40.1 °F 36.3 °F 30.66 in Calm     86.3% 0.00 in 0 W/m2
21:04 39.9 °F 36.2 °F 30.66 in Calm     86.4% 0.00 in 0 W/m2
21:09 39.9 °F 36.3 °F 30.66 in Calm     87% 0.00 in 0 W/m2
21:14 39.9 °F 36.3 °F 30.66 in WNW 0.6 mph 2 mph 87% 0.00 in 0 W/m2
21:19 39.9 °F 36.3 °F 30.66 in Calm   2 mph 87% 0.00 in 0 W/m2
21:24 39.9 °F 36.3 °F 30.66 in WNW 0.8 mph 2 mph 87% 0.00 in 0 W/m2
21:29 39.9 °F 36.3 °F 30.66 in Calm   1 mph 87% 0.00 in 0 W/m2
21:34 39.8 °F 36.3 °F 30.66 in Calm     87% 0.00 in 0 W/m2
21:39 39.9 °F 36.3 °F 30.66 in Calm     87% 0.00 in 0 W/m2
21:44 39.9 °F 36.3 °F 30.66 in Calm     87% 0.00 in 0 W/m2
21:49 39.9 °F 36.3 °F 30.66 in Calm     87% 0.00 in 0 W/m2
21:54 39.9 °F 36.3 °F 30.66 in Calm     87% 0.00 in 0 W/m2
21:59 39.7 °F 36.1 °F 30.66 in Calm     87% 0.00 in 0 W/m2
22:04 39.6 °F 36 °F 30.66 in Calm     87% 0.00 in 0 W/m2
22:09 39.7 °F 36.1 °F 30.66 in Calm     87% 0.00 in 0 W/m2
22:14 39.7 °F 36.1 °F 30.66 in WNW 1.5 mph 3 mph 87% 0.00 in 0 W/m2
22:19 39.6 °F 36 °F 30.66 in WNW 0.2 mph 2 mph 87% 0.00 in 0 W/m2
22:24 39.6 °F 36.1 °F 30.66 in Calm     87.2% 0.00 in 0 W/m2
22:29 39.7 °F 36.3 °F 30.66 in Calm     87.4% 0.00 in 0 W/m2
22:34 39.7 °F 36.1 °F 30.66 in Calm     87% 0.00 in 0 W/m2
22:39 39.7 °F 36.1 °F 30.66 in Calm     87% 0.00 in 0 W/m2
22:44 39.8 °F 36.2 °F 30.66 in Calm     87% 0.00 in 0 W/m2
22:49 39.9 °F 36.4 °F 30.66 in Calm     87.2% 0.00 in 0 W/m2
22:54 39.8 °F 36.4 °F 30.66 in WNW 0.4 mph 3 mph 87.6% 0.00 in 0 W/m2
22:59 39.8 °F 36.6 °F 30.66 in Calm     87.8% 0.00 in 0 W/m2
23:04 39.8 °F 36.2 °F 30.66 in Calm     87% 0.00 in 0 W/m2
23:09 39.7 °F 36.3 °F 30.66 in Calm     87.4% 0.00 in 0 W/m2
23:14 39.7 °F 36.2 °F 30.66 in Calm     87.2% 0.00 in 0 W/m2
23:19 39.8 °F 36.6 °F 30.66 in Calm     88% 0.00 in 0 W/m2
23:24 39.7 °F 36.1 °F 30.66 in Calm   1 mph 87% 0.00 in 0 W/m2
23:29 39.7 °F 36.5 °F 30.66 in Calm     88% 0.00 in 0 W/m2
23:34 39.7 °F 36.5 °F 30.66 in Calm     88% 0.00 in 0 W/m2
23:39 39.8 °F 36.6 °F 30.66 in WNW 0.4 mph 2 mph 88% 0.00 in 0 W/m2
23:44 39.7 °F 36.5 °F 30.66 in Calm   2 mph 88% 0.00 in 0 W/m2
23:49 39.7 °F 36.5 °F 30.66 in Calm     88% 0.00 in 0 W/m2
23:54 39.9 °F 36.7 °F 30.66 in Calm     88% 0.00 in 0 W/m2
23:59 39.9 °F 36.7 °F 30.66 in Calm     88% 0.00 in 0 W/m2
Bath Spa Weather
Compliments of Weather Underground - 2 mb